sensor_id;sensor_type;location;lat;lon;timestamp;P1;durP1;ratioP1;P2;durP2;ratioP2
77513;SDS011;66626;48.872;9.084;2023-04-24T00:00:31;2.80;;;0.85;;
77513;SDS011;66626;48.872;9.084;2023-04-24T00:02:57;2.00;;;0.80;;
77513;SDS011;66626;48.872;9.084;2023-04-24T00:05:22;2.75;;;0.93;;
77513;SDS011;66626;48.872;9.084;2023-04-24T00:07:48;2.50;;;0.77;;
77513;SDS011;66626;48.872;9.084;2023-04-24T00:10:14;2.83;;;0.80;;
77513;SDS011;66626;48.872;9.084;2023-04-24T00:12:39;3.85;;;1.00;;
77513;SDS011;66626;48.872;9.084;2023-04-24T00:15:05;3.78;;;0.95;;
77513;SDS011;66626;48.872;9.084;2023-04-24T00:17:30;2.58;;;0.90;;
77513;SDS011;66626;48.872;9.084;2023-04-24T00:19:56;1.88;;;0.60;;
77513;SDS011;66626;48.872;9.084;2023-04-24T00:22:26;2.22;;;0.85;;
77513;SDS011;66626;48.872;9.084;2023-04-24T00:24:52;3.35;;;0.80;;
77513;SDS011;66626;48.872;9.084;2023-04-24T00:27:18;4.10;;;1.10;;
77513;SDS011;66626;48.872;9.084;2023-04-24T00:29:43;1.85;;;0.60;;
77513;SDS011;66626;48.872;9.084;2023-04-24T00:32:09;2.83;;;0.95;;
77513;SDS011;66626;48.872;9.084;2023-04-24T00:34:34;1.50;;;0.75;;
77513;SDS011;66626;48.872;9.084;2023-04-24T00:36:59;4.95;;;0.82;;
77513;SDS011;66626;48.872;9.084;2023-04-24T00:39:25;2.83;;;0.88;;
77513;SDS011;66626;48.872;9.084;2023-04-24T00:41:50;1.38;;;0.55;;
77513;SDS011;66626;48.872;9.084;2023-04-24T00:44:16;1.40;;;0.70;;
77513;SDS011;66626;48.872;9.084;2023-04-24T00:46:41;1.65;;;0.55;;
77513;SDS011;66626;48.872;9.084;2023-04-24T00:49:07;3.53;;;0.80;;
77513;SDS011;66626;48.872;9.084;2023-04-24T00:51:33;0.95;;;0.57;;
77513;SDS011;66626;48.872;9.084;2023-04-24T00:53:59;2.00;;;0.98;;
77513;SDS011;66626;48.872;9.084;2023-04-24T00:56:25;1.95;;;0.73;;
77513;SDS011;66626;48.872;9.084;2023-04-24T00:58:50;2.25;;;0.70;;
77513;SDS011;66626;48.872;9.084;2023-04-24T01:01:16;1.48;;;0.52;;
77513;SDS011;66626;48.872;9.084;2023-04-24T01:03:42;1.80;;;0.60;;
77513;SDS011;66626;48.872;9.084;2023-04-24T01:06:07;4.32;;;0.80;;
77513;SDS011;66626;48.872;9.084;2023-04-24T01:08:34;3.25;;;0.85;;
77513;SDS011;66626;48.872;9.084;2023-04-24T01:10:59;3.22;;;0.70;;
77513;SDS011;66626;48.872;9.084;2023-04-24T01:13:25;1.88;;;0.60;;
77513;SDS011;66626;48.872;9.084;2023-04-24T01:15:51;2.88;;;0.60;;
77513;SDS011;66626;48.872;9.084;2023-04-24T01:18:16;1.75;;;0.77;;
77513;SDS011;66626;48.872;9.084;2023-04-24T01:20:42;2.03;;;0.70;;
77513;SDS011;66626;48.872;9.084;2023-04-24T01:23:09;3.83;;;0.68;;
77513;SDS011;66626;48.872;9.084;2023-04-24T01:25:35;3.58;;;0.73;;
77513;SDS011;66626;48.872;9.084;2023-04-24T01:28:01;1.65;;;0.85;;
77513;SDS011;66626;48.872;9.084;2023-04-24T01:30:27;3.13;;;0.63;;
77513;SDS011;66626;48.872;9.084;2023-04-24T01:32:53;2.30;;;0.75;;
77513;SDS011;66626;48.872;9.084;2023-04-24T01:35:18;2.15;;;0.82;;
77513;SDS011;66626;48.872;9.084;2023-04-24T01:37:44;2.17;;;0.75;;
77513;SDS011;66626;48.872;9.084;2023-04-24T01:40:10;2.28;;;0.75;;
77513;SDS011;66626;48.872;9.084;2023-04-24T01:42:35;3.15;;;0.70;;
77513;SDS011;66626;48.872;9.084;2023-04-24T01:45:01;1.70;;;0.65;;
77513;SDS011;66626;48.872;9.084;2023-04-24T01:47:28;1.92;;;0.80;;
77513;SDS011;66626;48.872;9.084;2023-04-24T01:49:55;2.05;;;0.60;;
77513;SDS011;66626;48.872;9.084;2023-04-24T01:52:20;2.03;;;0.60;;
77513;SDS011;66626;48.872;9.084;2023-04-24T01:54:46;2.85;;;0.90;;
77513;SDS011;66626;48.872;9.084;2023-04-24T01:57:11;2.88;;;0.80;;
77513;SDS011;66626;48.872;9.084;2023-04-24T01:59:36;3.30;;;0.90;;
77513;SDS011;66626;48.872;9.084;2023-04-24T02:02:02;2.30;;;0.70;;
77513;SDS011;66626;48.872;9.084;2023-04-24T02:04:28;3.17;;;0.80;;
77513;SDS011;66626;48.872;9.084;2023-04-24T02:06:53;1.35;;;0.65;;
77513;SDS011;66626;48.872;9.084;2023-04-24T02:09:19;2.15;;;0.93;;
77513;SDS011;66626;48.872;9.084;2023-04-24T02:11:44;3.35;;;1.00;;
77513;SDS011;66626;48.872;9.084;2023-04-24T02:14:09;2.65;;;0.98;;
77513;SDS011;66626;48.872;9.084;2023-04-24T02:16:35;2.17;;;0.80;;
77513;SDS011;66626;48.872;9.084;2023-04-24T02:19:00;4.78;;;1.00;;
77513;SDS011;66626;48.872;9.084;2023-04-24T02:21:26;1.98;;;0.70;;
77513;SDS011;66626;48.872;9.084;2023-04-24T02:23:52;3.00;;;0.55;;
77513;SDS011;66626;48.872;9.084;2023-04-24T02:26:18;4.47;;;1.15;;
77513;SDS011;66626;48.872;9.084;2023-04-24T02:28:43;2.05;;;0.75;;
77513;SDS011;66626;48.872;9.084;2023-04-24T02:31:09;3.03;;;0.80;;
77513;SDS011;66626;48.872;9.084;2023-04-24T02:33:34;4.97;;;1.33;;
77513;SDS011;66626;48.872;9.084;2023-04-24T02:36:00;4.82;;;1.10;;
77513;SDS011;66626;48.872;9.084;2023-04-24T02:38:26;4.22;;;0.85;;
77513;SDS011;66626;48.872;9.084;2023-04-24T02:40:51;4.13;;;0.82;;
77513;SDS011;66626;48.872;9.084;2023-04-24T02:43:17;2.22;;;0.90;;
77513;SDS011;66626;48.872;9.084;2023-04-24T02:45:42;3.92;;;1.10;;
77513;SDS011;66626;48.872;9.084;2023-04-24T02:48:07;3.38;;;0.98;;
77513;SDS011;66626;48.872;9.084;2023-04-24T02:50:33;4.95;;;1.45;;
77513;SDS011;66626;48.872;9.084;2023-04-24T02:52:58;2.75;;;0.88;;
77513;SDS011;66626;48.872;9.084;2023-04-24T02:55:23;4.10;;;1.00;;
77513;SDS011;66626;48.872;9.084;2023-04-24T02:57:50;5.25;;;0.85;;
77513;SDS011;66626;48.872;9.084;2023-04-24T03:00:15;1.10;;;0.50;;
77513;SDS011;66626;48.872;9.084;2023-04-24T03:02:40;2.83;;;0.88;;
77513;SDS011;66626;48.872;9.084;2023-04-24T03:05:07;2.63;;;0.77;;
77513;SDS011;66626;48.872;9.084;2023-04-24T03:07:32;4.13;;;0.82;;
77513;SDS011;66626;48.872;9.084;2023-04-24T03:09:57;4.53;;;1.05;;
77513;SDS011;66626;48.872;9.084;2023-04-24T03:12:23;2.58;;;1.00;;
77513;SDS011;66626;48.872;9.084;2023-04-24T03:14:48;4.35;;;1.00;;
77513;SDS011;66626;48.872;9.084;2023-04-24T03:17:14;2.25;;;1.00;;
77513;SDS011;66626;48.872;9.084;2023-04-24T03:19:39;3.85;;;1.05;;
77513;SDS011;66626;48.872;9.084;2023-04-24T03:22:04;2.65;;;1.10;;
77513;SDS011;66626;48.872;9.084;2023-04-24T03:24:30;2.50;;;0.90;;
77513;SDS011;66626;48.872;9.084;2023-04-24T03:26:55;2.47;;;0.88;;
77513;SDS011;66626;48.872;9.084;2023-04-24T03:29:21;1.70;;;0.80;;
77513;SDS011;66626;48.872;9.084;2023-04-24T03:31:47;4.40;;;1.00;;
77513;SDS011;66626;48.872;9.084;2023-04-24T03:34:12;4.90;;;1.15;;
77513;SDS011;66626;48.872;9.084;2023-04-24T03:36:37;3.70;;;0.70;;
77513;SDS011;66626;48.872;9.084;2023-04-24T03:39:03;1.92;;;0.80;;
77513;SDS011;66626;48.872;9.084;2023-04-24T03:41:28;3.63;;;0.80;;
77513;SDS011;66626;48.872;9.084;2023-04-24T03:43:55;2.17;;;0.75;;
77513;SDS011;66626;48.872;9.084;2023-04-24T03:46:20;3.17;;;1.00;;
77513;SDS011;66626;48.872;9.084;2023-04-24T03:48:45;2.03;;;0.75;;
77513;SDS011;66626;48.872;9.084;2023-04-24T03:51:11;1.83;;;0.85;;
77513;SDS011;66626;48.872;9.084;2023-04-24T03:53:36;2.03;;;0.75;;
77513;SDS011;66626;48.872;9.084;2023-04-24T03:56:02;1.98;;;0.73;;
77513;SDS011;66626;48.872;9.084;2023-04-24T03:58:28;1.33;;;0.60;;
77513;SDS011;66626;48.872;9.084;2023-04-24T04:00:54;3.03;;;0.93;;
77513;SDS011;66626;48.872;9.084;2023-04-24T04:03:19;2.17;;;0.77;;
77513;SDS011;66626;48.872;9.084;2023-04-24T04:05:44;3.67;;;1.23;;
77513;SDS011;66626;48.872;9.084;2023-04-24T04:08:10;2.95;;;0.90;;
77513;SDS011;66626;48.872;9.084;2023-04-24T04:10:35;4.05;;;1.02;;
77513;SDS011;66626;48.872;9.084;2023-04-24T04:13:01;2.75;;;0.90;;
77513;SDS011;66626;48.872;9.084;2023-04-24T04:15:26;3.85;;;0.95;;
77513;SDS011;66626;48.872;9.084;2023-04-24T04:17:51;4.18;;;1.25;;
77513;SDS011;66626;48.872;9.084;2023-04-24T04:20:17;3.63;;;1.05;;
77513;SDS011;66626;48.872;9.084;2023-04-24T04:22:42;3.42;;;1.15;;
77513;SDS011;66626;48.872;9.084;2023-04-24T04:25:07;3.60;;;1.30;;
77513;SDS011;66626;48.872;9.084;2023-04-24T04:27:33;4.05;;;1.27;;
77513;SDS011;66626;48.872;9.084;2023-04-24T04:29:59;3.70;;;1.50;;
77513;SDS011;66626;48.872;9.084;2023-04-24T04:34:54;2.88;;;0.98;;
77513;SDS011;66626;48.872;9.084;2023-04-24T04:37:20;2.63;;;1.20;;
77513;SDS011;66626;48.872;9.084;2023-04-24T04:39:45;2.92;;;1.00;;
77513;SDS011;66626;48.872;9.084;2023-04-24T04:42:11;3.00;;;1.40;;
77513;SDS011;66626;48.872;9.084;2023-04-24T04:44:36;2.65;;;0.88;;
77513;SDS011;66626;48.872;9.084;2023-04-24T04:47:03;4.70;;;1.27;;
77513;SDS011;66626;48.872;9.084;2023-04-24T04:49:30;5.57;;;1.13;;
77513;SDS011;66626;48.872;9.084;2023-04-24T04:51:56;4.72;;;1.50;;
77513;SDS011;66626;48.872;9.084;2023-04-24T04:54:21;2.90;;;1.27;;
77513;SDS011;66626;48.872;9.084;2023-04-24T04:56:46;3.17;;;1.20;;
77513;SDS011;66626;48.872;9.084;2023-04-24T04:59:12;3.25;;;1.30;;
77513;SDS011;66626;48.872;9.084;2023-04-24T05:01:37;3.85;;;1.40;;
77513;SDS011;66626;48.872;9.084;2023-04-24T05:04:03;3.60;;;1.20;;
77513;SDS011;66626;48.872;9.084;2023-04-24T05:06:28;3.22;;;1.25;;
77513;SDS011;66626;48.872;9.084;2023-04-24T05:08:53;3.50;;;1.20;;
77513;SDS011;66626;48.872;9.084;2023-04-24T05:11:22;4.88;;;1.75;;
77513;SDS011;66626;48.872;9.084;2023-04-24T05:13:47;2.88;;;1.20;;
77513;SDS011;66626;48.872;9.084;2023-04-24T05:16:13;4.93;;;1.40;;
77513;SDS011;66626;48.872;9.084;2023-04-24T05:18:38;3.65;;;1.35;;
77513;SDS011;66626;48.872;9.084;2023-04-24T05:21:03;4.57;;;2.13;;
77513;SDS011;66626;48.872;9.084;2023-04-24T05:23:29;3.10;;;1.40;;
77513;SDS011;66626;48.872;9.084;2023-04-24T05:25:54;8.38;;;2.85;;
77513;SDS011;66626;48.872;9.084;2023-04-24T05:28:19;4.63;;;1.35;;
77513;SDS011;66626;48.872;9.084;2023-04-24T05:30:45;5.13;;;1.90;;
77513;SDS011;66626;48.872;9.084;2023-04-24T05:33:11;5.28;;;1.67;;
77513;SDS011;66626;48.872;9.084;2023-04-24T05:35:36;3.08;;;1.48;;
77513;SDS011;66626;48.872;9.084;2023-04-24T05:38:02;4.15;;;1.48;;
77513;SDS011;66626;48.872;9.084;2023-04-24T05:40:27;4.78;;;1.75;;
77513;SDS011;66626;48.872;9.084;2023-04-24T05:42:53;3.95;;;1.60;;
77513;SDS011;66626;48.872;9.084;2023-04-24T05:45:18;2.97;;;1.55;;
77513;SDS011;66626;48.872;9.084;2023-04-24T05:47:44;5.47;;;1.75;;
77513;SDS011;66626;48.872;9.084;2023-04-24T05:50:10;5.25;;;1.50;;
77513;SDS011;66626;48.872;9.084;2023-04-24T05:52:35;3.65;;;1.40;;
77513;SDS011;66626;48.872;9.084;2023-04-24T05:55:01;4.10;;;1.27;;
77513;SDS011;66626;48.872;9.084;2023-04-24T05:57:26;4.53;;;1.42;;
77513;SDS011;66626;48.872;9.084;2023-04-24T05:59:52;3.63;;;1.50;;
77513;SDS011;66626;48.872;9.084;2023-04-24T06:02:17;5.03;;;1.67;;
77513;SDS011;66626;48.872;9.084;2023-04-24T06:04:42;3.65;;;1.55;;
77513;SDS011;66626;48.872;9.084;2023-04-24T06:07:08;4.00;;;1.80;;
77513;SDS011;66626;48.872;9.084;2023-04-24T06:09:35;3.95;;;1.55;;
77513;SDS011;66626;48.872;9.084;2023-04-24T06:12:01;3.70;;;1.70;;
77513;SDS011;66626;48.872;9.084;2023-04-24T06:14:27;9.05;;;4.15;;
77513;SDS011;66626;48.872;9.084;2023-04-24T06:16:52;4.82;;;1.75;;
77513;SDS011;66626;48.872;9.084;2023-04-24T06:19:18;15.02;;;5.85;;
77513;SDS011;66626;48.872;9.084;2023-04-24T06:21:43;3.70;;;1.80;;
77513;SDS011;66626;48.872;9.084;2023-04-24T06:24:08;6.07;;;1.38;;
77513;SDS011;66626;48.872;9.084;2023-04-24T06:26:33;3.47;;;1.30;;
77513;SDS011;66626;48.872;9.084;2023-04-24T06:28:59;3.97;;;1.42;;
77513;SDS011;66626;48.872;9.084;2023-04-24T06:31:25;4.47;;;1.58;;
77513;SDS011;66626;48.872;9.084;2023-04-24T06:33:50;4.72;;;1.55;;
77513;SDS011;66626;48.872;9.084;2023-04-24T06:36:16;4.63;;;1.42;;
77513;SDS011;66626;48.872;9.084;2023-04-24T06:38:41;5.68;;;1.50;;
77513;SDS011;66626;48.872;9.084;2023-04-24T06:41:07;4.82;;;1.67;;
77513;SDS011;66626;48.872;9.084;2023-04-24T06:43:32;5.10;;;1.63;;
77513;SDS011;66626;48.872;9.084;2023-04-24T06:45:58;4.65;;;1.75;;
77513;SDS011;66626;48.872;9.084;2023-04-24T06:48:24;3.40;;;1.73;;
77513;SDS011;66626;48.872;9.084;2023-04-24T06:50:50;3.45;;;1.30;;
77513;SDS011;66626;48.872;9.084;2023-04-24T06:53:15;6.45;;;1.80;;
77513;SDS011;66626;48.872;9.084;2023-04-24T06:55:41;4.70;;;1.77;;
77513;SDS011;66626;48.872;9.084;2023-04-24T06:58:08;4.30;;;1.60;;
77513;SDS011;66626;48.872;9.084;2023-04-24T07:00:33;4.30;;;1.73;;
77513;SDS011;66626;48.872;9.084;2023-04-24T07:02:58;4.15;;;1.73;;
77513;SDS011;66626;48.872;9.084;2023-04-24T07:05:23;4.18;;;2.00;;
77513;SDS011;66626;48.872;9.084;2023-04-24T07:07:49;5.18;;;1.80;;
77513;SDS011;66626;48.872;9.084;2023-04-24T07:10:16;4.68;;;1.95;;
77513;SDS011;66626;48.872;9.084;2023-04-24T07:12:41;4.03;;;1.73;;
77513;SDS011;66626;48.872;9.084;2023-04-24T07:15:07;3.85;;;1.67;;
77513;SDS011;66626;48.872;9.084;2023-04-24T07:17:33;4.03;;;1.58;;
77513;SDS011;66626;48.872;9.084;2023-04-24T07:19:59;3.67;;;1.85;;
77513;SDS011;66626;48.872;9.084;2023-04-24T07:22:25;5.05;;;1.98;;
77513;SDS011;66626;48.872;9.084;2023-04-24T07:24:50;5.13;;;1.63;;
77513;SDS011;66626;48.872;9.084;2023-04-24T07:27:16;4.75;;;1.42;;
77513;SDS011;66626;48.872;9.084;2023-04-24T07:29:41;4.75;;;1.40;;
77513;SDS011;66626;48.872;9.084;2023-04-24T07:32:07;3.90;;;1.40;;
77513;SDS011;66626;48.872;9.084;2023-04-24T07:34:32;3.53;;;1.30;;
77513;SDS011;66626;48.872;9.084;2023-04-24T07:36:58;6.22;;;1.80;;
77513;SDS011;66626;48.872;9.084;2023-04-24T07:39:23;5.10;;;1.60;;
77513;SDS011;66626;48.872;9.084;2023-04-24T07:41:49;9.02;;;1.90;;
77513;SDS011;66626;48.872;9.084;2023-04-24T07:44:14;3.80;;;1.67;;
77513;SDS011;66626;48.872;9.084;2023-04-24T07:46:39;4.10;;;1.48;;
77513;SDS011;66626;48.872;9.084;2023-04-24T07:49:05;3.70;;;1.40;;
77513;SDS011;66626;48.872;9.084;2023-04-24T07:51:30;3.83;;;1.40;;
77513;SDS011;66626;48.872;9.084;2023-04-24T07:53:57;3.70;;;1.40;;
77513;SDS011;66626;48.872;9.084;2023-04-24T07:56:22;3.55;;;1.30;;
77513;SDS011;66626;48.872;9.084;2023-04-24T07:58:48;4.10;;;1.48;;
77513;SDS011;66626;48.872;9.084;2023-04-24T08:01:13;4.10;;;1.35;;
77513;SDS011;66626;48.872;9.084;2023-04-24T08:03:38;3.75;;;1.42;;
77513;SDS011;66626;48.872;9.084;2023-04-24T08:06:04;5.97;;;1.90;;
77513;SDS011;66626;48.872;9.084;2023-04-24T08:08:29;4.60;;;1.40;;
77513;SDS011;66626;48.872;9.084;2023-04-24T08:10:54;3.90;;;1.42;;
77513;SDS011;66626;48.872;9.084;2023-04-24T08:13:20;5.00;;;1.48;;
77513;SDS011;66626;48.872;9.084;2023-04-24T08:15:45;4.65;;;1.90;;
77513;SDS011;66626;48.872;9.084;2023-04-24T08:18:11;4.47;;;1.55;;
77513;SDS011;66626;48.872;9.084;2023-04-24T08:20:37;3.80;;;1.40;;
77513;SDS011;66626;48.872;9.084;2023-04-24T08:23:02;3.90;;;1.45;;
77513;SDS011;66626;48.872;9.084;2023-04-24T08:25:28;3.10;;;1.50;;
77513;SDS011;66626;48.872;9.084;2023-04-24T08:27:53;5.38;;;1.38;;
77513;SDS011;66626;48.872;9.084;2023-04-24T08:30:19;3.60;;;1.50;;
77513;SDS011;66626;48.872;9.084;2023-04-24T08:32:45;3.38;;;1.33;;
77513;SDS011;66626;48.872;9.084;2023-04-24T08:35:10;3.08;;;1.17;;
77513;SDS011;66626;48.872;9.084;2023-04-24T08:37:36;2.33;;;1.08;;
77513;SDS011;66626;48.872;9.084;2023-04-24T08:40:03;2.38;;;1.23;;
77513;SDS011;66626;48.872;9.084;2023-04-24T08:42:32;3.38;;;1.00;;
77513;SDS011;66626;48.872;9.084;2023-04-24T08:44:58;3.05;;;1.30;;
77513;SDS011;66626;48.872;9.084;2023-04-24T08:47:23;3.38;;;1.40;;
77513;SDS011;66626;48.872;9.084;2023-04-24T08:49:50;6.28;;;1.60;;
77513;SDS011;66626;48.872;9.084;2023-04-24T08:52:16;4.25;;;1.23;;
77513;SDS011;66626;48.872;9.084;2023-04-24T08:54:42;3.17;;;1.08;;
77513;SDS011;66626;48.872;9.084;2023-04-24T08:57:10;3.08;;;0.90;;
77513;SDS011;66626;48.872;9.084;2023-04-24T08:59:36;3.60;;;1.08;;
77513;SDS011;66626;48.872;9.084;2023-04-24T09:02:03;3.08;;;1.00;;
77513;SDS011;66626;48.872;9.084;2023-04-24T09:04:28;3.55;;;1.35;;
77513;SDS011;66626;48.872;9.084;2023-04-24T09:06:55;4.80;;;1.13;;
77513;SDS011;66626;48.872;9.084;2023-04-24T09:09:22;3.83;;;1.45;;
77513;SDS011;66626;48.872;9.084;2023-04-24T09:11:52;2.50;;;1.13;;
77513;SDS011;66626;48.872;9.084;2023-04-24T09:14:18;3.63;;;0.95;;
77513;SDS011;66626;48.872;9.084;2023-04-24T09:16:44;1.58;;;0.65;;
77513;SDS011;66626;48.872;9.084;2023-04-24T09:19:10;1.48;;;0.90;;
77513;SDS011;66626;48.872;9.084;2023-04-24T09:21:35;2.63;;;0.80;;
77513;SDS011;66626;48.872;9.084;2023-04-24T09:24:03;3.30;;;0.90;;
77513;SDS011;66626;48.872;9.084;2023-04-24T09:26:30;3.00;;;1.13;;
77513;SDS011;66626;48.872;9.084;2023-04-24T09:28:57;2.70;;;1.10;;
77513;SDS011;66626;48.872;9.084;2023-04-24T09:31:22;3.15;;;1.15;;
77513;SDS011;66626;48.872;9.084;2023-04-24T09:33:55;1.90;;;0.90;;
77513;SDS011;66626;48.872;9.084;2023-04-24T09:36:28;2.83;;;1.25;;
77513;SDS011;66626;48.872;9.084;2023-04-24T09:39:02;2.40;;;1.00;;
77513;SDS011;66626;48.872;9.084;2023-04-24T09:41:29;3.40;;;1.10;;
77513;SDS011;66626;48.872;9.084;2023-04-24T09:43:55;2.30;;;1.00;;
77513;SDS011;66626;48.872;9.084;2023-04-24T09:46:21;3.70;;;0.90;;
77513;SDS011;66626;48.872;9.084;2023-04-24T09:48:53;3.40;;;1.27;;
77513;SDS011;66626;48.872;9.084;2023-04-24T09:51:18;4.80;;;1.25;;
77513;SDS011;66626;48.872;9.084;2023-04-24T09:53:58;2.97;;;1.00;;
77513;SDS011;66626;48.872;9.084;2023-04-24T09:56:23;2.67;;;1.00;;
77513;SDS011;66626;48.872;9.084;2023-04-24T09:58:50;3.65;;;1.13;;
77513;SDS011;66626;48.872;9.084;2023-04-24T10:01:16;3.17;;;1.10;;
77513;SDS011;66626;48.872;9.084;2023-04-24T10:03:41;2.95;;;1.00;;
77513;SDS011;66626;48.872;9.084;2023-04-24T10:06:07;3.00;;;1.25;;
77513;SDS011;66626;48.872;9.084;2023-04-24T10:08:36;3.30;;;1.10;;
77513;SDS011;66626;48.872;9.084;2023-04-24T10:11:02;2.78;;;1.15;;
77513;SDS011;66626;48.872;9.084;2023-04-24T10:13:27;2.67;;;1.00;;
77513;SDS011;66626;48.872;9.084;2023-04-24T10:15:53;3.22;;;1.33;;
77513;SDS011;66626;48.872;9.084;2023-04-24T10:18:20;3.15;;;1.20;;
77513;SDS011;66626;48.872;9.084;2023-04-24T10:20:46;4.60;;;1.60;;
77513;SDS011;66626;48.872;9.084;2023-04-24T10:23:11;3.58;;;1.40;;
77513;SDS011;66626;48.872;9.084;2023-04-24T10:25:37;4.50;;;1.30;;
77513;SDS011;66626;48.872;9.084;2023-04-24T10:28:03;3.80;;;1.23;;
77513;SDS011;66626;48.872;9.084;2023-04-24T10:30:30;3.55;;;1.30;;
77513;SDS011;66626;48.872;9.084;2023-04-24T10:33:05;4.57;;;1.00;;
77513;SDS011;66626;48.872;9.084;2023-04-24T10:35:32;3.58;;;1.48;;
77513;SDS011;66626;48.872;9.084;2023-04-24T10:38:05;3.80;;;1.38;;
77513;SDS011;66626;48.872;9.084;2023-04-24T10:40:34;4.00;;;1.30;;
77513;SDS011;66626;48.872;9.084;2023-04-24T10:43:07;4.65;;;1.58;;
77513;SDS011;66626;48.872;9.084;2023-04-24T10:45:35;2.50;;;0.98;;
77513;SDS011;66626;48.872;9.084;2023-04-24T10:48:09;2.80;;;1.13;;
77513;SDS011;66626;48.872;9.084;2023-04-24T10:50:47;3.83;;;1.40;;
77513;SDS011;66626;48.872;9.084;2023-04-24T10:53:17;5.35;;;1.42;;
77513;SDS011;66626;48.872;9.084;2023-04-24T10:55:50;5.55;;;1.48;;
77513;SDS011;66626;48.872;9.084;2023-04-24T10:58:21;3.22;;;1.30;;
77513;SDS011;66626;48.872;9.084;2023-04-24T11:00:55;3.20;;;1.40;;
77513;SDS011;66626;48.872;9.084;2023-04-24T11:03:23;4.35;;;1.40;;
77513;SDS011;66626;48.872;9.084;2023-04-24T11:05:50;5.45;;;2.63;;
77513;SDS011;66626;48.872;9.084;2023-04-24T11:08:22;3.38;;;1.35;;
77513;SDS011;66626;48.872;9.084;2023-04-24T11:10:56;3.13;;;1.00;;
77513;SDS011;66626;48.872;9.084;2023-04-24T11:19:08;3.78;;;1.42;;
77513;SDS011;66626;48.872;9.084;2023-04-24T11:24:26;3.35;;;1.60;;
77513;SDS011;66626;48.872;9.084;2023-04-24T11:34:59;3.33;;;1.50;;
77513;SDS011;66626;48.872;9.084;2023-04-24T11:37:27;3.70;;;1.50;;
77513;SDS011;66626;48.872;9.084;2023-04-24T11:39:54;3.08;;;1.40;;
77513;SDS011;66626;48.872;9.084;2023-04-24T11:42:21;4.53;;;1.30;;
77513;SDS011;66626;48.872;9.084;2023-04-24T11:44:47;3.20;;;1.38;;
77513;SDS011;66626;48.872;9.084;2023-04-24T11:47:12;2.75;;;1.02;;
77513;SDS011;66626;48.872;9.084;2023-04-24T11:49:38;2.63;;;1.00;;
77513;SDS011;66626;48.872;9.084;2023-04-24T11:52:03;3.67;;;1.13;;
77513;SDS011;66626;48.872;9.084;2023-04-24T11:54:29;3.35;;;1.33;;
77513;SDS011;66626;48.872;9.084;2023-04-24T11:56:55;3.53;;;1.40;;
77513;SDS011;66626;48.872;9.084;2023-04-24T11:59:21;2.85;;;1.13;;
77513;SDS011;66626;48.872;9.084;2023-04-24T12:01:46;3.60;;;1.40;;
77513;SDS011;66626;48.872;9.084;2023-04-24T12:04:13;3.45;;;1.30;;
77513;SDS011;66626;48.872;9.084;2023-04-24T12:06:39;3.47;;;1.30;;
77513;SDS011;66626;48.872;9.084;2023-04-24T12:09:05;3.80;;;1.40;;
77513;SDS011;66626;48.872;9.084;2023-04-24T12:11:31;2.90;;;1.20;;
77513;SDS011;66626;48.872;9.084;2023-04-24T12:13:56;4.03;;;1.73;;
77513;SDS011;66626;48.872;9.084;2023-04-24T12:16:22;3.78;;;1.30;;
77513;SDS011;66626;48.872;9.084;2023-04-24T12:18:47;3.40;;;1.40;;
77513;SDS011;66626;48.872;9.084;2023-04-24T12:21:19;3.13;;;1.30;;
77513;SDS011;66626;48.872;9.084;2023-04-24T12:23:46;4.75;;;1.30;;
77513;SDS011;66626;48.872;9.084;2023-04-24T12:26:12;3.97;;;1.48;;
77513;SDS011;66626;48.872;9.084;2023-04-24T12:28:41;4.38;;;1.52;;
77513;SDS011;66626;48.872;9.084;2023-04-24T12:31:06;3.50;;;1.42;;
77513;SDS011;66626;48.872;9.084;2023-04-24T12:33:32;3.53;;;1.35;;
77513;SDS011;66626;48.872;9.084;2023-04-24T12:35:59;3.40;;;1.40;;
77513;SDS011;66626;48.872;9.084;2023-04-24T12:38:26;2.67;;;1.10;;
77513;SDS011;66626;48.872;9.084;2023-04-24T12:41:08;3.90;;;1.75;;
77513;SDS011;66626;48.872;9.084;2023-04-24T12:43:34;3.97;;;1.85;;
77513;SDS011;66626;48.872;9.084;2023-04-24T12:46:00;4.13;;;1.40;;
77513;SDS011;66626;48.872;9.084;2023-04-24T12:48:26;3.45;;;1.42;;
77513;SDS011;66626;48.872;9.084;2023-04-24T12:50:51;5.00;;;1.42;;
77513;SDS011;66626;48.872;9.084;2023-04-24T12:53:20;4.53;;;1.25;;
77513;SDS011;66626;48.872;9.084;2023-04-24T12:55:45;2.75;;;1.15;;
77513;SDS011;66626;48.872;9.084;2023-04-24T12:58:12;3.65;;;1.15;;
77513;SDS011;66626;48.872;9.084;2023-04-24T13:00:39;5.32;;;1.98;;
77513;SDS011;66626;48.872;9.084;2023-04-24T13:03:04;4.80;;;1.58;;
77513;SDS011;66626;48.872;9.084;2023-04-24T13:05:30;4.15;;;1.90;;
77513;SDS011;66626;48.872;9.084;2023-04-24T13:07:55;5.00;;;1.70;;
77513;SDS011;66626;48.872;9.084;2023-04-24T13:10:20;5.07;;;2.10;;
77513;SDS011;66626;48.872;9.084;2023-04-24T13:12:46;5.82;;;2.45;;
77513;SDS011;66626;48.872;9.084;2023-04-24T13:15:11;5.03;;;1.95;;
77513;SDS011;66626;48.872;9.084;2023-04-24T13:17:37;4.18;;;1.83;;
77513;SDS011;66626;48.872;9.084;2023-04-24T13:20:02;5.35;;;1.92;;
77513;SDS011;66626;48.872;9.084;2023-04-24T13:22:28;4.60;;;1.80;;
77513;SDS011;66626;48.872;9.084;2023-04-24T13:24:53;4.68;;;1.70;;
77513;SDS011;66626;48.872;9.084;2023-04-24T13:27:19;3.08;;;1.42;;
77513;SDS011;66626;48.872;9.084;2023-04-24T13:29:45;5.05;;;2.25;;
77513;SDS011;66626;48.872;9.084;2023-04-24T13:32:10;6.15;;;2.70;;
77513;SDS011;66626;48.872;9.084;2023-04-24T13:34:36;4.57;;;1.92;;
77513;SDS011;66626;48.872;9.084;2023-04-24T13:37:01;4.20;;;1.90;;
77513;SDS011;66626;48.872;9.084;2023-04-24T13:39:28;5.55;;;2.05;;
77513;SDS011;66626;48.872;9.084;2023-04-24T13:41:54;7.07;;;2.08;;
77513;SDS011;66626;48.872;9.084;2023-04-24T13:44:20;8.18;;;2.40;;
77513;SDS011;66626;48.872;9.084;2023-04-24T13:46:47;11.60;;;6.68;;
77513;SDS011;66626;48.872;9.084;2023-04-24T13:49:13;9.02;;;5.75;;
77513;SDS011;66626;48.872;9.084;2023-04-24T13:51:39;26.13;;;18.48;;
77513;SDS011;66626;48.872;9.084;2023-04-24T13:54:05;16.17;;;10.82;;
77513;SDS011;66626;48.872;9.084;2023-04-24T13:56:30;22.35;;;13.35;;
77513;SDS011;66626;48.872;9.084;2023-04-24T13:58:56;10.27;;;7.18;;
77513;SDS011;66626;48.872;9.084;2023-04-24T14:01:21;12.60;;;3.55;;
77513;SDS011;66626;48.872;9.084;2023-04-24T14:03:49;4.43;;;1.50;;
77513;SDS011;66626;48.872;9.084;2023-04-24T14:06:16;4.22;;;1.67;;
77513;SDS011;66626;48.872;9.084;2023-04-24T14:08:41;4.82;;;1.88;;
77513;SDS011;66626;48.872;9.084;2023-04-24T14:11:07;4.65;;;2.40;;
77513;SDS011;66626;48.872;9.084;2023-04-24T14:13:32;5.93;;;2.58;;
77513;SDS011;66626;48.872;9.084;2023-04-24T14:15:57;5.57;;;1.88;;
77513;SDS011;66626;48.872;9.084;2023-04-24T14:18:23;11.88;;;3.72;;
77513;SDS011;66626;48.872;9.084;2023-04-24T14:20:48;5.95;;;2.60;;
77513;SDS011;66626;48.872;9.084;2023-04-24T14:23:13;5.72;;;2.33;;
77513;SDS011;66626;48.872;9.084;2023-04-24T14:25:39;5.40;;;2.28;;
77513;SDS011;66626;48.872;9.084;2023-04-24T14:28:05;7.75;;;2.67;;
77513;SDS011;66626;48.872;9.084;2023-04-24T14:30:30;6.50;;;3.00;;
77513;SDS011;66626;48.872;9.084;2023-04-24T14:32:56;5.25;;;2.10;;
77513;SDS011;66626;48.872;9.084;2023-04-24T14:35:21;3.72;;;1.67;;
77513;SDS011;66626;48.872;9.084;2023-04-24T14:37:46;5.72;;;1.70;;
77513;SDS011;66626;48.872;9.084;2023-04-24T14:40:13;5.15;;;1.70;;
77513;SDS011;66626;48.872;9.084;2023-04-24T14:42:38;5.00;;;1.90;;
77513;SDS011;66626;48.872;9.084;2023-04-24T14:45:05;3.58;;;1.58;;
77513;SDS011;66626;48.872;9.084;2023-04-24T14:47:31;4.75;;;1.70;;
77513;SDS011;66626;48.872;9.084;2023-04-24T14:49:56;3.33;;;1.42;;
77513;SDS011;66626;48.872;9.084;2023-04-24T14:52:23;3.53;;;1.40;;
77513;SDS011;66626;48.872;9.084;2023-04-24T14:54:51;3.22;;;1.27;;
77513;SDS011;66626;48.872;9.084;2023-04-24T14:57:16;4.60;;;1.42;;
77513;SDS011;66626;48.872;9.084;2023-04-24T14:59:41;4.43;;;1.85;;